sensor_id;sensor_type;location;lat;lon;timestamp;temperature;humidity
8792;DHT22;4432;50.890;4.744;2022-08-24T00:02:19;18.90;99.90
8792;DHT22;4432;50.890;4.744;2022-08-24T00:04:45;18.80;99.90
8792;DHT22;4432;50.890;4.744;2022-08-24T00:07:12;18.80;99.90
8792;DHT22;4432;50.890;4.744;2022-08-24T00:09:38;18.70;99.90
8792;DHT22;4432;50.890;4.744;2022-08-24T00:12:04;18.70;99.90
8792;DHT22;4432;50.890;4.744;2022-08-24T00:14:30;18.60;99.90
8792;DHT22;4432;50.890;4.744;2022-08-24T00:16:57;18.60;99.90
8792;DHT22;4432;50.890;4.744;2022-08-24T00:19:24;18.60;99.90
8792;DHT22;4432;50.890;4.744;2022-08-24T00:21:50;18.60;99.90
8792;DHT22;4432;50.890;4.744;2022-08-24T00:24:16;18.60;99.90
8792;DHT22;4432;50.890;4.744;2022-08-24T00:26:43;18.60;99.90
8792;DHT22;4432;50.890;4.744;2022-08-24T00:29:13;18.60;99.90
8792;DHT22;4432;50.890;4.744;2022-08-24T00:31:39;18.60;99.90
8792;DHT22;4432;50.890;4.744;2022-08-24T00:34:04;18.50;99.90
8792;DHT22;4432;50.890;4.744;2022-08-24T00:36:31;18.50;99.90
8792;DHT22;4432;50.890;4.744;2022-08-24T00:38:57;18.50;99.90
8792;DHT22;4432;50.890;4.744;2022-08-24T00:41:23;18.40;99.90
8792;DHT22;4432;50.890;4.744;2022-08-24T00:43:54;18.30;99.90
8792;DHT22;4432;50.890;4.744;2022-08-24T00:46:57;18.30;99.90
8792;DHT22;4432;50.890;4.744;2022-08-24T00:49:19;18.30;99.90
8792;DHT22;4432;50.890;4.744;2022-08-24T00:51:55;18.30;99.90
8792;DHT22;4432;50.890;4.744;2022-08-24T00:54:24;18.30;99.90
8792;DHT22;4432;50.890;4.744;2022-08-24T00:56:55;18.30;99.90
8792;DHT22;4432;50.890;4.744;2022-08-24T00:59:29;18.20;99.90
8792;DHT22;4432;50.890;4.744;2022-08-24T01:01:57;18.20;99.90
8792;DHT22;4432;50.890;4.744;2022-08-24T01:04:31;18.20;99.90
8792;DHT22;4432;50.890;4.744;2022-08-24T01:06:59;18.20;99.90
8792;DHT22;4432;50.890;4.744;2022-08-24T01:09:25;18.10;99.90
8792;DHT22;4432;50.890;4.744;2022-08-24T01:11:51;18.10;99.90
8792;DHT22;4432;50.890;4.744;2022-08-24T01:14:19;18.00;99.90
8792;DHT22;4432;50.890;4.744;2022-08-24T01:16:45;18.10;99.90
8792;DHT22;4432;50.890;4.744;2022-08-24T01:19:39;18.00;99.90
8792;DHT22;4432;50.890;4.744;2022-08-24T01:22:18;18.00;99.90
8792;DHT22;4432;50.890;4.744;2022-08-24T01:24:45;18.00;99.90
8792;DHT22;4432;50.890;4.744;2022-08-24T01:27:13;18.00;99.90
8792;DHT22;4432;50.890;4.744;2022-08-24T01:29:41;18.00;99.90
8792;DHT22;4432;50.890;4.744;2022-08-24T01:32:08;18.00;99.90
8792;DHT22;4432;50.890;4.744;2022-08-24T01:34:35;17.90;99.90
8792;DHT22;4432;50.890;4.744;2022-08-24T01:37:01;17.90;99.90
8792;DHT22;4432;50.890;4.744;2022-08-24T01:39:30;17.80;99.90
8792;DHT22;4432;50.890;4.744;2022-08-24T01:41:58;17.80;99.90
8792;DHT22;4432;50.890;4.744;2022-08-24T01:44:25;17.80;99.90
8792;DHT22;4432;50.890;4.744;2022-08-24T01:46:53;17.80;99.90
8792;DHT22;4432;50.890;4.744;2022-08-24T01:49:26;17.80;99.90
8792;DHT22;4432;50.890;4.744;2022-08-24T01:51:53;17.80;99.90
8792;DHT22;4432;50.890;4.744;2022-08-24T01:54:19;17.80;99.90
8792;DHT22;4432;50.890;4.744;2022-08-24T01:56:45;17.90;99.90
8792;DHT22;4432;50.890;4.744;2022-08-24T01:59:11;17.90;99.90
8792;DHT22;4432;50.890;4.744;2022-08-24T02:01:41;17.80;99.90
8792;DHT22;4432;50.890;4.744;2022-08-24T02:04:08;17.70;99.90
8792;DHT22;4432;50.890;4.744;2022-08-24T02:06:34;17.60;99.90
8792;DHT22;4432;50.890;4.744;2022-08-24T02:09:00;17.50;99.90
8792;DHT22;4432;50.890;4.744;2022-08-24T02:11:27;17.60;99.90
8792;DHT22;4432;50.890;4.744;2022-08-24T02:13:53;17.60;99.90
8792;DHT22;4432;50.890;4.744;2022-08-24T02:16:19;17.60;99.90
8792;DHT22;4432;50.890;4.744;2022-08-24T02:18:45;17.60;99.90
8792;DHT22;4432;50.890;4.744;2022-08-24T02:21:12;17.60;99.90
8792;DHT22;4432;50.890;4.744;2022-08-24T02:23:40;17.60;99.90
8792;DHT22;4432;50.890;4.744;2022-08-24T02:26:07;17.60;99.90
8792;DHT22;4432;50.890;4.744;2022-08-24T02:28:33;17.50;99.90
8792;DHT22;4432;50.890;4.744;2022-08-24T02:31:00;17.30;99.90
8792;DHT22;4432;50.890;4.744;2022-08-24T02:33:27;17.30;99.90
8792;DHT22;4432;50.890;4.744;2022-08-24T02:35:53;17.30;99.90
8792;DHT22;4432;50.890;4.744;2022-08-24T02:38:20;17.30;99.90
8792;DHT22;4432;50.890;4.744;2022-08-24T02:40:46;17.40;99.90
8792;DHT22;4432;50.890;4.744;2022-08-24T02:43:12;17.40;99.90
8792;DHT22;4432;50.890;4.744;2022-08-24T02:45:43;17.40;99.90
8792;DHT22;4432;50.890;4.744;2022-08-24T02:48:09;17.40;99.90
8792;DHT22;4432;50.890;4.744;2022-08-24T02:50:39;17.40;99.90
8792;DHT22;4432;50.890;4.744;2022-08-24T02:53:06;17.40;99.90
8792;DHT22;4432;50.890;4.744;2022-08-24T02:55:32;17.30;99.90
8792;DHT22;4432;50.890;4.744;2022-08-24T02:57:57;17.40;99.90
8792;DHT22;4432;50.890;4.744;2022-08-24T03:00:23;17.30;99.90
8792;DHT22;4432;50.890;4.744;2022-08-24T03:02:50;17.30;99.90
8792;DHT22;4432;50.890;4.744;2022-08-24T03:05:16;17.20;99.90
8792;DHT22;4432;50.890;4.744;2022-08-24T03:07:43;17.20;99.90
8792;DHT22;4432;50.890;4.744;2022-08-24T03:10:09;17.20;99.90
8792;DHT22;4432;50.890;4.744;2022-08-24T03:12:35;17.20;99.90
8792;DHT22;4432;50.890;4.744;2022-08-24T03:15:04;17.20;99.90
8792;DHT22;4432;50.890;4.744;2022-08-24T03:17:30;17.20;99.90
8792;DHT22;4432;50.890;4.744;2022-08-24T03:19:58;17.20;99.90
8792;DHT22;4432;50.890;4.744;2022-08-24T03:22:25;17.20;99.90
8792;DHT22;4432;50.890;4.744;2022-08-24T03:24:51;17.20;99.90
8792;DHT22;4432;50.890;4.744;2022-08-24T03:27:17;17.10;99.90
8792;DHT22;4432;50.890;4.744;2022-08-24T03:29:43;17.10;99.90
8792;DHT22;4432;50.890;4.744;2022-08-24T03:32:09;17.00;99.90
8792;DHT22;4432;50.890;4.744;2022-08-24T03:34:35;17.00;99.90
8792;DHT22;4432;50.890;4.744;2022-08-24T03:37:01;17.00;99.90
8792;DHT22;4432;50.890;4.744;2022-08-24T03:39:27;17.00;99.90
8792;DHT22;4432;50.890;4.744;2022-08-24T03:41:53;17.00;99.90
8792;DHT22;4432;50.890;4.744;2022-08-24T03:44:18;16.90;99.90
8792;DHT22;4432;50.890;4.744;2022-08-24T03:46:44;16.90;99.90
8792;DHT22;4432;50.890;4.744;2022-08-24T03:49:11;16.80;99.90
8792;DHT22;4432;50.890;4.744;2022-08-24T03:51:38;16.90;99.90
8792;DHT22;4432;50.890;4.744;2022-08-24T03:54:06;16.90;99.90
8792;DHT22;4432;50.890;4.744;2022-08-24T03:56:32;16.90;99.90
8792;DHT22;4432;50.890;4.744;2022-08-24T03:58:58;16.90;99.90
8792;DHT22;4432;50.890;4.744;2022-08-24T04:01:24;17.00;99.90
8792;DHT22;4432;50.890;4.744;2022-08-24T04:03:50;16.90;99.90
8792;DHT22;4432;50.890;4.744;2022-08-24T04:06:19;16.90;99.90
8792;DHT22;4432;50.890;4.744;2022-08-24T04:08:46;16.90;99.90
8792;DHT22;4432;50.890;4.744;2022-08-24T04:11:14;16.80;99.90
8792;DHT22;4432;50.890;4.744;2022-08-24T04:13:40;16.80;99.90
8792;DHT22;4432;50.890;4.744;2022-08-24T04:16:08;16.80;99.90
8792;DHT22;4432;50.890;4.744;2022-08-24T04:18:34;16.70;99.90
8792;DHT22;4432;50.890;4.744;2022-08-24T04:21:01;16.70;99.90
8792;DHT22;4432;50.890;4.744;2022-08-24T04:23:28;16.70;99.90
8792;DHT22;4432;50.890;4.744;2022-08-24T04:25:54;16.70;99.90
8792;DHT22;4432;50.890;4.744;2022-08-24T04:28:20;16.70;99.90
8792;DHT22;4432;50.890;4.744;2022-08-24T04:30:47;16.70;99.90
8792;DHT22;4432;50.890;4.744;2022-08-24T04:33:17;16.70;99.90
8792;DHT22;4432;50.890;4.744;2022-08-24T04:35:46;16.70;99.90
8792;DHT22;4432;50.890;4.744;2022-08-24T04:38:13;16.70;99.90
8792;DHT22;4432;50.890;4.744;2022-08-24T04:40:41;16.70;99.90
8792;DHT22;4432;50.890;4.744;2022-08-24T04:43:07;16.80;99.90
8792;DHT22;4432;50.890;4.744;2022-08-24T04:45:38;16.80;99.90
8792;DHT22;4432;50.890;4.744;2022-08-24T04:48:04;16.80;99.90
8792;DHT22;4432;50.890;4.744;2022-08-24T04:50:33;16.80;99.90
8792;DHT22;4432;50.890;4.744;2022-08-24T04:53:01;16.80;99.90
8792;DHT22;4432;50.890;4.744;2022-08-24T04:55:27;16.90;99.90
8792;DHT22;4432;50.890;4.744;2022-08-24T04:57:53;16.90;99.90
8792;DHT22;4432;50.890;4.744;2022-08-24T05:00:19;16.90;99.90
8792;DHT22;4432;50.890;4.744;2022-08-24T05:02:45;16.90;99.90
8792;DHT22;4432;50.890;4.744;2022-08-24T05:05:11;16.90;99.90
8792;DHT22;4432;50.890;4.744;2022-08-24T05:07:38;16.80;99.90
8792;DHT22;4432;50.890;4.744;2022-08-24T05:10:05;17.00;99.90
8792;DHT22;4432;50.890;4.744;2022-08-24T05:12:32;17.00;99.90
8792;DHT22;4432;50.890;4.744;2022-08-24T05:14:58;17.00;99.90
8792;DHT22;4432;50.890;4.744;2022-08-24T05:17:25;17.10;99.90
8792;DHT22;4432;50.890;4.744;2022-08-24T05:19:56;17.10;99.90
8792;DHT22;4432;50.890;4.744;2022-08-24T05:22:23;17.20;99.90
8792;DHT22;4432;50.890;4.744;2022-08-24T05:24:49;17.20;99.90
8792;DHT22;4432;50.890;4.744;2022-08-24T05:27:15;17.30;99.90
8792;DHT22;4432;50.890;4.744;2022-08-24T05:29:41;17.30;99.90
8792;DHT22;4432;50.890;4.744;2022-08-24T05:32:07;17.40;99.90
8792;DHT22;4432;50.890;4.744;2022-08-24T05:34:33;17.40;99.90
8792;DHT22;4432;50.890;4.744;2022-08-24T05:36:59;17.40;99.90
8792;DHT22;4432;50.890;4.744;2022-08-24T05:39:24;17.50;99.90
8792;DHT22;4432;50.890;4.744;2022-08-24T05:41:50;17.60;99.90
8792;DHT22;4432;50.890;4.744;2022-08-24T05:44:17;17.70;99.90
8792;DHT22;4432;50.890;4.744;2022-08-24T05:46:44;17.90;99.90
8792;DHT22;4432;50.890;4.744;2022-08-24T05:49:10;18.00;99.90
8792;DHT22;4432;50.890;4.744;2022-08-24T05:51:38;18.10;99.90
8792;DHT22;4432;50.890;4.744;2022-08-24T05:54:04;18.20;99.90
8792;DHT22;4432;50.890;4.744;2022-08-24T05:56:30;18.30;99.90
8792;DHT22;4432;50.890;4.744;2022-08-24T05:58:56;18.40;99.90
8792;DHT22;4432;50.890;4.744;2022-08-24T06:01:24;18.50;99.90
8792;DHT22;4432;50.890;4.744;2022-08-24T06:03:51;18.60;99.90
8792;DHT22;4432;50.890;4.744;2022-08-24T06:06:19;18.70;99.90
8792;DHT22;4432;50.890;4.744;2022-08-24T06:08:47;18.90;99.90
8792;DHT22;4432;50.890;4.744;2022-08-24T06:11:29;19.10;99.90
8792;DHT22;4432;50.890;4.744;2022-08-24T06:13:58;19.30;99.90
8792;DHT22;4432;50.890;4.744;2022-08-24T06:16:24;19.70;99.90
8792;DHT22;4432;50.890;4.744;2022-08-24T06:18:52;20.00;99.90
8792;DHT22;4432;50.890;4.744;2022-08-24T06:21:23;20.20;99.90
8792;DHT22;4432;50.890;4.744;2022-08-24T06:23:49;20.30;99.90
8792;DHT22;4432;50.890;4.744;2022-08-24T06:26:16;20.40;99.90
8792;DHT22;4432;50.890;4.744;2022-08-24T06:29:00;20.50;99.90
8792;DHT22;4432;50.890;4.744;2022-08-24T06:31:26;20.70;99.90
8792;DHT22;4432;50.890;4.744;2022-08-24T06:33:53;20.90;99.90
8792;DHT22;4432;50.890;4.744;2022-08-24T06:36:20;21.20;99.90
8792;DHT22;4432;50.890;4.744;2022-08-24T06:38:46;21.40;99.90
8792;DHT22;4432;50.890;4.744;2022-08-24T06:41:12;21.70;99.90
8792;DHT22;4432;50.890;4.744;2022-08-24T06:43:38;21.70;99.90
8792;DHT22;4432;50.890;4.744;2022-08-24T06:46:04;21.80;99.90
8792;DHT22;4432;50.890;4.744;2022-08-24T06:48:31;21.90;99.90
8792;DHT22;4432;50.890;4.744;2022-08-24T06:50:57;21.90;99.90
8792;DHT22;4432;50.890;4.744;2022-08-24T06:53:24;21.90;99.90
8792;DHT22;4432;50.890;4.744;2022-08-24T06:55:57;21.90;99.90
8792;DHT22;4432;50.890;4.744;2022-08-24T06:58:25;21.90;99.90
8792;DHT22;4432;50.890;4.744;2022-08-24T07:00:53;22.00;99.90
8792;DHT22;4432;50.890;4.744;2022-08-24T07:03:20;22.00;99.90
8792;DHT22;4432;50.890;4.744;2022-08-24T07:05:55;22.00;99.90
8792;DHT22;4432;50.890;4.744;2022-08-24T07:08:22;22.10;99.90
8792;DHT22;4432;50.890;4.744;2022-08-24T07:10:49;22.20;99.90
8792;DHT22;4432;50.890;4.744;2022-08-24T07:13:15;22.20;99.90
8792;DHT22;4432;50.890;4.744;2022-08-24T07:15:42;22.30;99.90
8792;DHT22;4432;50.890;4.744;2022-08-24T07:18:14;22.40;99.90
8792;DHT22;4432;50.890;4.744;2022-08-24T07:20:40;22.50;99.90
8792;DHT22;4432;50.890;4.744;2022-08-24T07:23:07;22.50;99.90
8792;DHT22;4432;50.890;4.744;2022-08-24T07:25:33;22.60;99.90
8792;DHT22;4432;50.890;4.744;2022-08-24T07:27:59;22.70;99.90
8792;DHT22;4432;50.890;4.744;2022-08-24T07:30:26;22.60;99.90
8792;DHT22;4432;50.890;4.744;2022-08-24T07:32:53;22.70;99.90
8792;DHT22;4432;50.890;4.744;2022-08-24T07:35:19;22.80;99.90
8792;DHT22;4432;50.890;4.744;2022-08-24T07:37:45;22.80;99.90
8792;DHT22;4432;50.890;4.744;2022-08-24T07:40:11;22.90;99.90
8792;DHT22;4432;50.890;4.744;2022-08-24T07:42:37;23.00;99.90
8792;DHT22;4432;50.890;4.744;2022-08-24T07:45:05;23.10;99.90
8792;DHT22;4432;50.890;4.744;2022-08-24T07:47:31;23.20;99.90
8792;DHT22;4432;50.890;4.744;2022-08-24T07:49:57;23.30;99.90
8792;DHT22;4432;50.890;4.744;2022-08-24T07:52:22;23.30;99.90
8792;DHT22;4432;50.890;4.744;2022-08-24T07:54:48;23.40;99.90
8792;DHT22;4432;50.890;4.744;2022-08-24T07:57:14;23.50;99.90
8792;DHT22;4432;50.890;4.744;2022-08-24T07:59:40;23.60;99.90
8792;DHT22;4432;50.890;4.744;2022-08-24T08:02:07;23.70;99.90
8792;DHT22;4432;50.890;4.744;2022-08-24T08:04:35;23.70;99.90
8792;DHT22;4432;50.890;4.744;2022-08-24T08:07:02;23.90;99.90
8792;DHT22;4432;50.890;4.744;2022-08-24T08:09:28;23.90;99.90
8792;DHT22;4432;50.890;4.744;2022-08-24T08:11:54;24.30;99.90
8792;DHT22;4432;50.890;4.744;2022-08-24T08:14:19;24.30;99.90
8792;DHT22;4432;50.890;4.744;2022-08-24T08:16:45;24.40;99.90
8792;DHT22;4432;50.890;4.744;2022-08-24T08:19:11;24.40;99.90
8792;DHT22;4432;50.890;4.744;2022-08-24T08:21:45;24.50;99.90
8792;DHT22;4432;50.890;4.744;2022-08-24T08:24:30;24.80;99.90
8792;DHT22;4432;50.890;4.744;2022-08-24T08:26:56;25.20;99.90
8792;DHT22;4432;50.890;4.744;2022-08-24T08:29:22;25.40;99.90
8792;DHT22;4432;50.890;4.744;2022-08-24T08:31:49;25.30;99.90
8792;DHT22;4432;50.890;4.744;2022-08-24T08:34:17;25.40;99.90
8792;DHT22;4432;50.890;4.744;2022-08-24T08:36:43;25.60;99.90
8792;DHT22;4432;50.890;4.744;2022-08-24T08:39:11;25.60;99.90
8792;DHT22;4432;50.890;4.744;2022-08-24T08:50:25;25.70;99.90
8792;DHT22;4432;50.890;4.744;2022-08-24T08:53:24;25.80;99.90
8792;DHT22;4432;50.890;4.744;2022-08-24T08:56:15;26.00;99.90
8792;DHT22;4432;50.890;4.744;2022-08-24T08:58:51;26.00;99.90
8792;DHT22;4432;50.890;4.744;2022-08-24T09:30:18;30.20;99.90
8792;DHT22;4432;50.890;4.744;2022-08-24T09:47:26;31.10;99.90
8792;DHT22;4432;50.890;4.744;2022-08-24T09:53:18;31.60;96.60
8792;DHT22;4432;50.890;4.744;2022-08-24T10:04:09;31.40;96.10
8792;DHT22;4432;50.890;4.744;2022-08-24T10:12:40;31.50;94.20
8792;DHT22;4432;50.890;4.744;2022-08-24T10:23:32;31.30;93.20
8792;DHT22;4432;50.890;4.744;2022-08-24T10:26:10;31.20;92.20
8792;DHT22;4432;50.890;4.744;2022-08-24T10:31:58;31.10;91.10
8792;DHT22;4432;50.890;4.744;2022-08-24T10:37:43;31.20;87.80
8792;DHT22;4432;50.890;4.744;2022-08-24T10:48:46;31.50;82.20
8792;DHT22;4432;50.890;4.744;2022-08-24T10:53:59;31.40;78.80
8792;DHT22;4432;50.890;4.744;2022-08-24T10:56:54;30.70;83.90
8792;DHT22;4432;50.890;4.744;2022-08-24T10:59:27;30.60;83.50
8792;DHT22;4432;50.890;4.744;2022-08-24T11:02:06;30.70;83.50
8792;DHT22;4432;50.890;4.744;2022-08-24T11:04:33;31.00;80.20
8792;DHT22;4432;50.890;4.744;2022-08-24T11:07:07;31.20;75.80
8792;DHT22;4432;50.890;4.744;2022-08-24T11:09:44;31.10;75.50
8792;DHT22;4432;50.890;4.744;2022-08-24T11:12:28;30.90;75.90
8792;DHT22;4432;50.890;4.744;2022-08-24T11:15:00;30.90;75.10
8792;DHT22;4432;50.890;4.744;2022-08-24T11:17:30;30.50;76.40
8792;DHT22;4432;50.890;4.744;2022-08-24T11:19:57;30.60;75.10
8792;DHT22;4432;50.890;4.744;2022-08-24T11:22:42;30.70;68.60
8792;DHT22;4432;50.890;4.744;2022-08-24T11:25:29;31.00;72.00
8792;DHT22;4432;50.890;4.744;2022-08-24T11:28:17;31.30;68.60
8792;DHT22;4432;50.890;4.744;2022-08-24T11:30:44;31.50;68.80
8792;DHT22;4432;50.890;4.744;2022-08-24T11:33:31;31.40;68.90
8792;DHT22;4432;50.890;4.744;2022-08-24T11:35:58;31.30;70.80
8792;DHT22;4432;50.890;4.744;2022-08-24T11:38:30;31.60;66.00
8792;DHT22;4432;50.890;4.744;2022-08-24T11:41:02;31.80;65.70
8792;DHT22;4432;50.890;4.744;2022-08-24T11:54:47;31.80;56.90
8792;DHT22;4432;50.890;4.744;2022-08-24T11:59:57;31.80;56.40
8792;DHT22;4432;50.890;4.744;2022-08-24T12:02:34;32.00;55.90
8792;DHT22;4432;50.890;4.744;2022-08-24T12:13:54;31.60;50.50
8792;DHT22;4432;50.890;4.744;2022-08-24T12:16:40;31.80;52.10
8792;DHT22;4432;50.890;4.744;2022-08-24T12:19:28;32.00;48.00
8792;DHT22;4432;50.890;4.744;2022-08-24T12:21:58;32.20;48.60
8792;DHT22;4432;50.890;4.744;2022-08-24T12:29:44;32.00;44.10
8792;DHT22;4432;50.890;4.744;2022-08-24T12:32:16;32.00;45.00
8792;DHT22;4432;50.890;4.744;2022-08-24T12:37:46;32.00;44.40
8792;DHT22;4432;50.890;4.744;2022-08-24T12:40:42;31.90;43.20
8792;DHT22;4432;50.890;4.744;2022-08-24T12:46:05;32.20;43.80
8792;DHT22;4432;50.890;4.744;2022-08-24T12:48:40;32.00;42.30
8792;DHT22;4432;50.890;4.744;2022-08-24T12:51:36;31.80;44.40
8792;DHT22;4432;50.890;4.744;2022-08-24T12:57:01;32.10;44.90
8792;DHT22;4432;50.890;4.744;2022-08-24T13:12:47;32.80;42.10
8792;DHT22;4432;50.890;4.744;2022-08-24T13:42:02;32.70;42.40
8792;DHT22;4432;50.890;4.744;2022-08-24T13:51:10;32.70;39.60
8792;DHT22;4432;50.890;4.744;2022-08-24T13:59:14;32.70;40.30
8792;DHT22;4432;50.890;4.744;2022-08-24T14:02:02;32.80;38.60
8792;DHT22;4432;50.890;4.744;2022-08-24T14:10:06;32.70;37.20
8792;DHT22;4432;50.890;4.744;2022-08-24T14:18:42;32.60;36.80
8792;DHT22;4432;50.890;4.744;2022-08-24T14:34:24;32.40;36.20
8792;DHT22;4432;50.890;4.744;2022-08-24T14:36:53;32.60;37.00
8792;DHT22;4432;50.890;4.744;2022-08-24T14:39:36;32.80;35.30
8792;DHT22;4432;50.890;4.744;2022-08-24T14:42:41;32.90;35.00
8792;DHT22;4432;50.890;4.744;2022-08-24T14:45:17;32.90;35.80
8792;DHT22;4432;50.890;4.744;2022-08-24T14:47:57;33.10;34.50
8792;DHT22;4432;50.890;4.744;2022-08-24T14:50:32;33.00;33.30
8792;DHT22;4432;50.890;4.744;2022-08-24T15:01:42;32.70;32.90
8792;DHT22;4432;50.890;4.744;2022-08-24T15:09:45;32.90;32.10
8792;DHT22;4432;50.890;4.744;2022-08-24T15:14:53;32.60;32.60
8792;DHT22;4432;50.890;4.744;2022-08-24T15:17:23;32.50;32.80
8792;DHT22;4432;50.890;4.744;2022-08-24T15:22:28;32.10;33.50
8792;DHT22;4432;50.890;4.744;2022-08-24T15:25:35;31.90;34.10
8792;DHT22;4432;50.890;4.744;2022-08-24T15:28:10;31.80;34.30
8792;DHT22;4432;50.890;4.744;2022-08-24T15:30:37;31.60;34.20
8792;DHT22;4432;50.890;4.744;2022-08-24T15:33:18;31.40;34.50
8792;DHT22;4432;50.890;4.744;2022-08-24T15:36:06;31.20;34.70
8792;DHT22;4432;50.890;4.744;2022-08-24T15:38:34;31.10;36.50
8792;DHT22;4432;50.890;4.744;2022-08-24T15:41:37;31.10;36.40
8792;DHT22;4432;50.890;4.744;2022-08-24T15:44:22;31.00;37.50
8792;DHT22;4432;50.890;4.744;2022-08-24T15:46:55;31.00;37.70
8792;DHT22;4432;50.890;4.744;2022-08-24T15:49:30;30.90;38.90
8792;DHT22;4432;50.890;4.744;2022-08-24T15:52:08;30.80;38.20
8792;DHT22;4432;50.890;4.744;2022-08-24T15:54:57;30.80;39.50
8792;DHT22;4432;50.890;4.744;2022-08-24T15:59:51;30.80;39.40
8792;DHT22;4432;50.890;4.744;2022-08-24T16:02:27;30.70;39.90
8792;DHT22;4432;50.890;4.744;2022-08-24T16:10:41;30.80;40.90
8792;DHT22;4432;50.890;4.744;2022-08-24T16:15:48;30.80;40.50
8792;DHT22;4432;50.890;4.744;2022-08-24T16:18:16;30.90;40.40
8792;DHT22;4432;50.890;4.744;2022-08-24T16:20:43;30.90;40.70
8792;DHT22;4432;50.890;4.744;2022-08-24T16:23:20;30.90;40.70
8792;DHT22;4432;50.890;4.744;2022-08-24T16:25:46;30.90;42.20
8792;DHT22;4432;50.890;4.744;2022-08-24T16:35:55;31.10;42.50
8792;DHT22;4432;50.890;4.744;2022-08-24T16:38:20;31.10;43.60
8792;DHT22;4432;50.890;4.744;2022-08-24T16:40:46;31.20;43.00
8792;DHT22;4432;50.890;4.744;2022-08-24T16:43:12;31.30;42.40
8792;DHT22;4432;50.890;4.744;2022-08-24T16:45:38;31.50;42.50
8792;DHT22;4432;50.890;4.744;2022-08-24T16:48:05;31.60;41.50
8792;DHT22;4432;50.890;4.744;2022-08-24T16:50:31;31.70;41.20
8792;DHT22;4432;50.890;4.744;2022-08-24T16:52:57;31.70;40.60
8792;DHT22;4432;50.890;4.744;2022-08-24T16:55:24;31.80;39.10
8792;DHT22;4432;50.890;4.744;2022-08-24T16:57:53;31.70;39.20
8792;DHT22;4432;50.890;4.744;2022-08-24T17:00:19;31.70;38.90
8792;DHT22;4432;50.890;4.744;2022-08-24T17:02:46;31.70;39.50
8792;DHT22;4432;50.890;4.744;2022-08-24T17:05:14;31.70;39.80
8792;DHT22;4432;50.890;4.744;2022-08-24T17:07:40;31.70;37.40
8792;DHT22;4432;50.890;4.744;2022-08-24T17:10:09;31.60;38.90
8792;DHT22;4432;50.890;4.744;2022-08-24T17:12:36;31.50;39.30
8792;DHT22;4432;50.890;4.744;2022-08-24T17:15:04;31.40;38.90
8792;DHT22;4432;50.890;4.744;2022-08-24T17:17:30;31.20;38.90
8792;DHT22;4432;50.890;4.744;2022-08-24T17:19:56;31.10;39.50
8792;DHT22;4432;50.890;4.744;2022-08-24T17:22:23;31.00;39.60
8792;DHT22;4432;50.890;4.744;2022-08-24T17:24:50;31.00;40.70
8792;DHT22;4432;50.890;4.744;2022-08-24T17:27:18;30.80;41.10
8792;DHT22;4432;50.890;4.744;2022-08-24T17:29:44;30.80;41.90
8792;DHT22;4432;50.890;4.744;2022-08-24T17:32:11;30.60;42.60
8792;DHT22;4432;50.890;4.744;2022-08-24T17:34:38;30.60;43.60
8792;DHT22;4432;50.890;4.744;2022-08-24T17:37:04;30.50;44.40
8792;DHT22;4432;50.890;4.744;2022-08-24T17:39:31;30.40;44.60
8792;DHT22;4432;50.890;4.744;2022-08-24T17:41:57;30.20;45.60
8792;DHT22;4432;50.890;4.744;2022-08-24T17:44:27;30.10;45.80
8792;DHT22;4432;50.890;4.744;2022-08-24T17:46:55;30.00;46.80
8792;DHT22;4432;50.890;4.744;2022-08-24T17:49:22;29.90;47.50
8792;DHT22;4432;50.890;4.744;2022-08-24T17:51:48;29.80;48.60
8792;DHT22;4432;50.890;4.744;2022-08-24T17:54:15;29.60;49.10
8792;DHT22;4432;50.890;4.744;2022-08-24T17:56:41;29.60;50.00
8792;DHT22;4432;50.890;4.744;2022-08-24T17:59:09;29.50;50.60
8792;DHT22;4432;50.890;4.744;2022-08-24T18:01:51;29.50;50.70
8792;DHT22;4432;50.890;4.744;2022-08-24T18:04:20;29.40;51.30
8792;DHT22;4432;50.890;4.744;2022-08-24T18:06:47;29.30;52.20
8792;DHT22;4432;50.890;4.744;2022-08-24T18:09:18;29.20;53.10
8792;DHT22;4432;50.890;4.744;2022-08-24T18:11:46;29.20;53.00
8792;DHT22;4432;50.890;4.744;2022-08-24T18:14:12;29.10;53.80
8792;DHT22;4432;50.890;4.744;2022-08-24T18:16:38;29.00;54.50
8792;DHT22;4432;50.890;4.744;2022-08-24T18:19:04;28.90;54.60
8792;DHT22;4432;50.890;4.744;2022-08-24T18:21:30;28.80;56.40
8792;DHT22;4432;50.890;4.744;2022-08-24T18:23:56;28.70;57.80
8792;DHT22;4432;50.890;4.744;2022-08-24T18:26:27;28.60;59.60
8792;DHT22;4432;50.890;4.744;2022-08-24T18:28:55;28.40;63.80
8792;DHT22;4432;50.890;4.744;2022-08-24T18:31:23;28.20;68.10
8792;DHT22;4432;50.890;4.744;2022-08-24T18:33:50;28.00;75.20
8792;DHT22;4432;50.890;4.744;2022-08-24T18:36:15;27.90;86.10
8792;DHT22;4432;50.890;4.744;2022-08-24T18:38:42;27.70;95.10
8792;DHT22;4432;50.890;4.744;2022-08-24T18:41:09;27.50;99.90
8792;DHT22;4432;50.890;4.744;2022-08-24T18:43:35;27.40;99.90
8792;DHT22;4432;50.890;4.744;2022-08-24T18:46:01;27.20;99.90
8792;DHT22;4432;50.890;4.744;2022-08-24T18:48:29;27.10;99.90
8792;DHT22;4432;50.890;4.744;2022-08-24T18:50:55;27.00;99.90
8792;DHT22;4432;50.890;4.744;2022-08-24T18:53:24;26.80;99.90
8792;DHT22;4432;50.890;4.744;2022-08-24T18:55:50;26.70;99.90
8792;DHT22;4432;50.890;4.744;2022-08-24T18:58:16;26.60;99.90
8792;DHT22;4432;50.890;4.744;2022-08-24T19:00:42;26.40;99.90
8792;DHT22;4432;50.890;4.744;2022-08-24T19:03:11;26.30;99.90
8792;DHT22;4432;50.890;4.744;2022-08-24T19:05:39;26.10;99.90
8792;DHT22;4432;50.890;4.744;2022-08-24T19:08:05;26.00;99.90
8792;DHT22;4432;50.890;4.744;2022-08-24T19:10:34;25.90;99.90
8792;DHT22;4432;50.890;4.744;2022-08-24T19:13:06;25.80;99.90
8792;DHT22;4432;50.890;4.744;2022-08-24T19:15:32;25.60;99.90
8792;DHT22;4432;50.890;4.744;2022-08-24T19:17:58;25.50;99.90
8792;DHT22;4432;50.890;4.744;2022-08-24T19:20:24;25.40;99.90
8792;DHT22;4432;50.890;4.744;2022-08-24T19:22:51;25.30;99.90
8792;DHT22;4432;50.890;4.744;2022-08-24T19:25:23;25.20;99.90
8792;DHT22;4432;50.890;4.744;2022-08-24T19:27:49;25.20;99.90
8792;DHT22;4432;50.890;4.744;2022-08-24T19:30:15;25.10;99.90
8792;DHT22;4432;50.890;4.744;2022-08-24T19:32:42;25.10;99.90
8792;DHT22;4432;50.890;4.744;2022-08-24T19:35:09;25.10;99.90
8792;DHT22;4432;50.890;4.744;2022-08-24T19:37:35;25.10;99.90
8792;DHT22;4432;50.890;4.744;2022-08-24T19:40:02;25.00;99.90
8792;DHT22;4432;50.890;4.744;2022-08-24T19:42:28;25.00;99.90
8792;DHT22;4432;50.890;4.744;2022-08-24T19:44:54;25.10;99.90
8792;DHT22;4432;50.890;4.744;2022-08-24T19:47:49;25.00;99.90
8792;DHT22;4432;50.890;4.744;2022-08-24T19:50:15;25.00;99.90
8792;DHT22;4432;50.890;4.744;2022-08-24T19:52:43;25.20;99.90
8792;DHT22;4432;50.890;4.744;2022-08-24T19:55:10;25.60;99.90
8792;DHT22;4432;50.890;4.744;2022-08-24T20:02:52;26.30;99.90
8792;DHT22;4432;50.890;4.744;2022-08-24T20:05:20;26.30;99.90
8792;DHT22;4432;50.890;4.744;2022-08-24T20:07:46;26.40;99.90
8792;DHT22;4432;50.890;4.744;2022-08-24T20:10:15;26.30;99.90
8792;DHT22;4432;50.890;4.744;2022-08-24T20:12:41;26.20;99.90
8792;DHT22;4432;50.890;4.744;2022-08-24T20:15:07;26.00;99.90
8792;DHT22;4432;50.890;4.744;2022-08-24T20:17:34;25.80;99.90
8792;DHT22;4432;50.890;4.744;2022-08-24T20:20:01;25.70;99.90
8792;DHT22;4432;50.890;4.744;2022-08-24T20:22:27;25.60;99.90
8792;DHT22;4432;50.890;4.744;2022-08-24T20:24:53;25.40;99.90
8792;DHT22;4432;50.890;4.744;2022-08-24T20:27:24;25.30;99.90
8792;DHT22;4432;50.890;4.744;2022-08-24T20:29:51;25.20;99.90